ADDS TAF Board (Experimental) INFO Settings
IDs: Format: Expanded Condensed

KPIT - Pittsburgh Intl, PA, US

Issued at 0236 UTC 06 Jul 2015
Updated at: 0251 UTC 06 Jul 2015
Time0151Z 06/03Z 06/04Z 06/05Z 06/06Z 06/07Z 06/08Z 06/09Z 06/10Z 06/11Z 06/12Z 06/13Z 06/14Z 06/15Z
Type OBS PRVL PRVL PRVL PRVL PRVL PRVL PRVL PRVL PRVL PRVL PRVL PRVL PRVL
VIS 10 >6 >6 >6 >6 >6 >6 >6 >6 >6 >6 >6 >6 >6
CIG 200 200 200 200 200 200 200 200 200 200 200 200 200 40
Cover OVC OVC OVC OVC OVC OVC OVC OVC OVC OVC OVC OVC OVC BKN
FltCat VFR VFR VFR VFR VFR VFR VFR VFR VFR VFR VFR VFR VFR VFR
WX -- -- -- -- -- -- -- -- -- -- -- -- -- VCSH
WDir 50 50 50 50 50 50 50 50 50 50 50 50 50 130
WSpd 6 6 6 6 6 6 6 6 6 6 6 6 6 4
WGst -- -- -- -- -- -- -- -- -- -- -- -- -- --
R10/28
XWnd 4 4 4 4 4 4 4 4 4 4 4 4 4 -2
HWnd 4 4 4 4 4 4 4 4 4 4 4 4 4 3
R14/32
XWnd 6 6 6 6 6 6 6 6 6 6 6 6 6 0
HWnd 0 0 0 0 0 0 0 0 0 0 0 0 0 4

NOTE: TEMPO conditions in [brackets]. Keep in mind TEMPO conditions might be better (lower impact) than prevailing conditions.

Raw TAF
KPIT 060236Z 0603/0706 05006KT P6SM FEW050 OVC200
  FM061500 13004KT P6SM VCSH BKN040
  FM061800 19006KT 6SM -SHRA VCTS BKN035CB OVC050


Raw METAR
KPIT 060151Z 05006KT 10SM FEW050 OVC200 24/15 A3010 RMK AO2 SLP191 T02440150
KPIT 060051Z 05005KT 10SM SCT055 SCT120 OVC200 25/15 A3009 RMK AO2 SLP190 T02500150
KPIT 052351Z 05004KT 10SM FEW060 FEW120 OVC200 26/16 A3010 RMK AO2 SLP193 T02560156 10278 20256 55001

METAR Board
Radar Display
Forecast Discussion

TAF Board Legend

Potential Impact
Threat None Slight Moderate High
Visibility (sm) ≥5.1 5.1>X≥3 3>X≥1 <1
Ceiling (100 ft) ≥30.1 30.1>X≥10 10>X≥5 <5
Wind Speed (kt) <10 10≤X<20 20≤X<30 ≥30
Wind Gust (kt) <15 15≤X<25 25≤X<35 ≥35
Weather No Wx Reported VCTS,-TS,-FZRA,SN TS,FZRA +TS,+FZRA,+SN